sensor_id;sensor_type;location;lat;lon;timestamp;P1;durP1;ratioP1;P2;durP2;ratioP2
21356;SDS011;10836;53.068;18.234;2022-07-25T00:01:07;6.63;;;4.85;;
21356;SDS011;10836;53.068;18.234;2022-07-25T00:03:36;7.82;;;4.93;;
21356;SDS011;10836;53.068;18.234;2022-07-25T00:06:04;6.32;;;4.63;;
21356;SDS011;10836;53.068;18.234;2022-07-25T00:08:39;9.30;;;5.07;;
21356;SDS011;10836;53.068;18.234;2022-07-25T00:11:06;7.75;;;5.60;;
21356;SDS011;10836;53.068;18.234;2022-07-25T00:13:33;9.23;;;5.05;;
21356;SDS011;10836;53.068;18.234;2022-07-25T00:16:00;6.07;;;5.15;;
21356;SDS011;10836;53.068;18.234;2022-07-25T00:18:27;6.47;;;4.80;;
21356;SDS011;10836;53.068;18.234;2022-07-25T00:20:54;6.25;;;4.97;;
21356;SDS011;10836;53.068;18.234;2022-07-25T00:23:21;8.88;;;4.90;;
21356;SDS011;10836;53.068;18.234;2022-07-25T00:25:48;5.93;;;4.53;;
21356;SDS011;10836;53.068;18.234;2022-07-25T00:28:15;6.05;;;4.70;;
21356;SDS011;10836;53.068;18.234;2022-07-25T00:30:42;4.38;;;3.97;;
21356;SDS011;10836;53.068;18.234;2022-07-25T00:33:10;5.43;;;4.35;;
21356;SDS011;10836;53.068;18.234;2022-07-25T00:35:37;8.50;;;5.43;;
21356;SDS011;10836;53.068;18.234;2022-07-25T00:38:04;6.60;;;5.03;;
21356;SDS011;10836;53.068;18.234;2022-07-25T00:40:31;7.80;;;5.23;;
21356;SDS011;10836;53.068;18.234;2022-07-25T00:42:58;6.28;;;4.82;;
21356;SDS011;10836;53.068;18.234;2022-07-25T00:45:25;6.82;;;4.95;;
21356;SDS011;10836;53.068;18.234;2022-07-25T00:47:52;7.15;;;5.60;;
21356;SDS011;10836;53.068;18.234;2022-07-25T00:50:19;8.23;;;5.15;;
21356;SDS011;10836;53.068;18.234;2022-07-25T00:52:47;9.25;;;6.00;;
21356;SDS011;10836;53.068;18.234;2022-07-25T00:55:14;8.67;;;5.83;;
21356;SDS011;10836;53.068;18.234;2022-07-25T00:57:41;7.87;;;5.00;;
21356;SDS011;10836;53.068;18.234;2022-07-25T01:00:11;7.00;;;4.83;;
21356;SDS011;10836;53.068;18.234;2022-07-25T01:02:40;7.28;;;4.05;;
21356;SDS011;10836;53.068;18.234;2022-07-25T01:05:08;7.57;;;4.87;;
21356;SDS011;10836;53.068;18.234;2022-07-25T01:07:37;7.77;;;5.63;;
21356;SDS011;10836;53.068;18.234;2022-07-25T01:10:04;7.20;;;4.80;;
21356;SDS011;10836;53.068;18.234;2022-07-25T01:12:42;8.37;;;5.97;;
21356;SDS011;10836;53.068;18.234;2022-07-25T01:15:21;7.63;;;5.00;;
21356;SDS011;10836;53.068;18.234;2022-07-25T01:17:50;17.00;;;5.77;;
21356;SDS011;10836;53.068;18.234;2022-07-25T01:20:18;7.38;;;5.10;;
21356;SDS011;10836;53.068;18.234;2022-07-25T01:22:47;6.10;;;4.68;;
21356;SDS011;10836;53.068;18.234;2022-07-25T01:25:14;7.68;;;5.15;;
21356;SDS011;10836;53.068;18.234;2022-07-25T01:27:42;7.07;;;5.22;;
21356;SDS011;10836;53.068;18.234;2022-07-25T01:30:10;7.80;;;5.60;;
21356;SDS011;10836;53.068;18.234;2022-07-25T01:32:39;6.13;;;5.10;;
21356;SDS011;10836;53.068;18.234;2022-07-25T01:35:06;7.93;;;5.20;;
21356;SDS011;10836;53.068;18.234;2022-07-25T01:37:34;7.43;;;5.27;;
21356;SDS011;10836;53.068;18.234;2022-07-25T01:40:02;6.57;;;4.70;;
21356;SDS011;10836;53.068;18.234;2022-07-25T01:42:30;9.57;;;5.33;;
21356;SDS011;10836;53.068;18.234;2022-07-25T01:44:58;7.73;;;5.20;;
21356;SDS011;10836;53.068;18.234;2022-07-25T01:47:25;9.37;;;5.47;;
21356;SDS011;10836;53.068;18.234;2022-07-25T01:49:52;7.90;;;5.60;;
21356;SDS011;10836;53.068;18.234;2022-07-25T01:52:19;7.10;;;5.17;;
21356;SDS011;10836;53.068;18.234;2022-07-25T01:54:46;7.77;;;5.20;;
21356;SDS011;10836;53.068;18.234;2022-07-25T01:57:14;6.97;;;5.23;;
21356;SDS011;10836;53.068;18.234;2022-07-25T01:59:42;8.50;;;5.20;;
21356;SDS011;10836;53.068;18.234;2022-07-25T02:02:09;6.63;;;4.80;;
21356;SDS011;10836;53.068;18.234;2022-07-25T02:04:36;8.70;;;5.80;;
21356;SDS011;10836;53.068;18.234;2022-07-25T02:07:04;9.68;;;5.45;;
21356;SDS011;10836;53.068;18.234;2022-07-25T02:09:32;7.45;;;5.63;;
21356;SDS011;10836;53.068;18.234;2022-07-25T02:12:00;9.68;;;5.97;;
21356;SDS011;10836;53.068;18.234;2022-07-25T02:14:27;10.77;;;5.73;;
21356;SDS011;10836;53.068;18.234;2022-07-25T02:16:54;14.75;;;5.75;;
21356;SDS011;10836;53.068;18.234;2022-07-25T02:19:21;7.50;;;5.18;;
21356;SDS011;10836;53.068;18.234;2022-07-25T02:21:49;10.63;;;5.73;;
21356;SDS011;10836;53.068;18.234;2022-07-25T02:24:16;9.20;;;5.10;;
21356;SDS011;10836;53.068;18.234;2022-07-25T02:26:43;10.00;;;5.73;;
21356;SDS011;10836;53.068;18.234;2022-07-25T02:29:10;8.73;;;5.43;;
21356;SDS011;10836;53.068;18.234;2022-07-25T02:31:37;8.13;;;5.80;;
21356;SDS011;10836;53.068;18.234;2022-07-25T02:34:04;9.43;;;5.80;;
21356;SDS011;10836;53.068;18.234;2022-07-25T02:36:31;8.48;;;5.05;;
21356;SDS011;10836;53.068;18.234;2022-07-25T02:38:58;9.93;;;6.10;;
21356;SDS011;10836;53.068;18.234;2022-07-25T02:41:25;8.30;;;5.90;;
21356;SDS011;10836;53.068;18.234;2022-07-25T02:43:53;12.00;;;5.83;;
21356;SDS011;10836;53.068;18.234;2022-07-25T02:46:20;11.10;;;6.17;;
21356;SDS011;10836;53.068;18.234;2022-07-25T02:48:47;8.07;;;6.10;;
21356;SDS011;10836;53.068;18.234;2022-07-25T02:51:14;11.83;;;6.43;;
21356;SDS011;10836;53.068;18.234;2022-07-25T02:53:41;10.30;;;6.10;;
21356;SDS011;10836;53.068;18.234;2022-07-25T02:56:25;9.23;;;6.63;;
21356;SDS011;10836;53.068;18.234;2022-07-25T02:58:57;12.43;;;7.43;;
21356;SDS011;10836;53.068;18.234;2022-07-25T03:01:24;11.93;;;6.70;;
21356;SDS011;10836;53.068;18.234;2022-07-25T03:03:51;14.93;;;7.20;;
21356;SDS011;10836;53.068;18.234;2022-07-25T03:06:19;9.80;;;6.40;;
21356;SDS011;10836;53.068;18.234;2022-07-25T03:08:46;10.97;;;6.40;;
21356;SDS011;10836;53.068;18.234;2022-07-25T03:11:13;14.83;;;7.60;;
21356;SDS011;10836;53.068;18.234;2022-07-25T03:13:42;13.70;;;6.90;;
21356;SDS011;10836;53.068;18.234;2022-07-25T03:16:09;20.08;;;8.30;;
21356;SDS011;10836;53.068;18.234;2022-07-25T03:18:37;18.27;;;7.67;;
21356;SDS011;10836;53.068;18.234;2022-07-25T03:21:04;18.57;;;7.50;;
21356;SDS011;10836;53.068;18.234;2022-07-25T03:23:31;9.77;;;7.00;;
21356;SDS011;10836;53.068;18.234;2022-07-25T03:25:59;11.03;;;7.07;;
21356;SDS011;10836;53.068;18.234;2022-07-25T03:28:26;17.23;;;8.57;;
21356;SDS011;10836;53.068;18.234;2022-07-25T03:30:53;15.40;;;9.07;;
21356;SDS011;10836;53.068;18.234;2022-07-25T03:33:20;13.27;;;9.00;;
21356;SDS011;10836;53.068;18.234;2022-07-25T03:35:48;14.63;;;9.17;;
21356;SDS011;10836;53.068;18.234;2022-07-25T03:38:15;11.97;;;8.70;;
21356;SDS011;10836;53.068;18.234;2022-07-25T03:40:42;14.53;;;8.23;;
21356;SDS011;10836;53.068;18.234;2022-07-25T03:43:09;13.80;;;9.40;;
21356;SDS011;10836;53.068;18.234;2022-07-25T03:45:36;13.77;;;7.88;;
21356;SDS011;10836;53.068;18.234;2022-07-25T03:48:04;22.97;;;9.43;;
21356;SDS011;10836;53.068;18.234;2022-07-25T03:50:31;12.07;;;8.40;;
21356;SDS011;10836;53.068;18.234;2022-07-25T03:52:58;11.93;;;8.17;;
21356;SDS011;10836;53.068;18.234;2022-07-25T03:55:25;14.88;;;7.93;;
21356;SDS011;10836;53.068;18.234;2022-07-25T03:57:52;12.63;;;8.57;;
21356;SDS011;10836;53.068;18.234;2022-07-25T04:00:19;11.17;;;8.90;;
21356;SDS011;10836;53.068;18.234;2022-07-25T04:02:46;12.87;;;8.77;;
21356;SDS011;10836;53.068;18.234;2022-07-25T04:05:13;13.90;;;9.23;;
21356;SDS011;10836;53.068;18.234;2022-07-25T04:07:40;12.13;;;9.32;;
21356;SDS011;10836;53.068;18.234;2022-07-25T04:10:08;14.02;;;9.70;;
21356;SDS011;10836;53.068;18.234;2022-07-25T04:12:35;14.10;;;9.77;;
21356;SDS011;10836;53.068;18.234;2022-07-25T04:15:03;13.70;;;9.43;;
21356;SDS011;10836;53.068;18.234;2022-07-25T04:17:30;15.02;;;8.80;;
21356;SDS011;10836;53.068;18.234;2022-07-25T04:19:58;13.90;;;9.77;;
21356;SDS011;10836;53.068;18.234;2022-07-25T04:22:25;16.02;;;10.60;;
21356;SDS011;10836;53.068;18.234;2022-07-25T04:24:52;12.93;;;8.77;;
21356;SDS011;10836;53.068;18.234;2022-07-25T04:27:19;15.45;;;9.25;;
21356;SDS011;10836;53.068;18.234;2022-07-25T04:29:46;14.90;;;9.02;;
21356;SDS011;10836;53.068;18.234;2022-07-25T04:32:14;16.77;;;9.80;;
21356;SDS011;10836;53.068;18.234;2022-07-25T04:34:48;12.10;;;9.52;;
21356;SDS011;10836;53.068;18.234;2022-07-25T04:37:17;16.65;;;9.15;;
21356;SDS011;10836;53.068;18.234;2022-07-25T04:39:44;15.48;;;9.65;;
21356;SDS011;10836;53.068;18.234;2022-07-25T04:42:11;14.65;;;10.10;;
21356;SDS011;10836;53.068;18.234;2022-07-25T04:44:38;11.57;;;9.27;;
21356;SDS011;10836;53.068;18.234;2022-07-25T04:47:05;13.50;;;9.73;;
21356;SDS011;10836;53.068;18.234;2022-07-25T04:49:32;13.98;;;9.65;;
21356;SDS011;10836;53.068;18.234;2022-07-25T04:51:59;19.00;;;9.52;;
21356;SDS011;10836;53.068;18.234;2022-07-25T04:54:27;10.82;;;8.07;;
21356;SDS011;10836;53.068;18.234;2022-07-25T04:56:54;14.98;;;9.35;;
21356;SDS011;10836;53.068;18.234;2022-07-25T04:59:21;18.35;;;11.00;;
21356;SDS011;10836;53.068;18.234;2022-07-25T05:01:48;15.57;;;10.00;;
21356;SDS011;10836;53.068;18.234;2022-07-25T05:04:15;15.55;;;9.57;;
21356;SDS011;10836;53.068;18.234;2022-07-25T05:06:42;18.40;;;10.55;;
21356;SDS011;10836;53.068;18.234;2022-07-25T05:09:09;14.98;;;9.50;;
21356;SDS011;10836;53.068;18.234;2022-07-25T05:11:36;14.90;;;10.07;;
21356;SDS011;10836;53.068;18.234;2022-07-25T05:14:04;19.48;;;9.93;;
21356;SDS011;10836;53.068;18.234;2022-07-25T05:16:31;18.23;;;9.35;;
21356;SDS011;10836;53.068;18.234;2022-07-25T05:18:58;14.07;;;8.25;;
21356;SDS011;10836;53.068;18.234;2022-07-25T05:21:26;14.88;;;8.43;;
21356;SDS011;10836;53.068;18.234;2022-07-25T05:23:53;11.68;;;7.95;;
21356;SDS011;10836;53.068;18.234;2022-07-25T05:26:20;11.55;;;7.60;;
21356;SDS011;10836;53.068;18.234;2022-07-25T05:28:47;14.30;;;7.18;;
21356;SDS011;10836;53.068;18.234;2022-07-25T05:31:14;11.63;;;6.95;;
21356;SDS011;10836;53.068;18.234;2022-07-25T05:33:42;12.07;;;7.43;;
21356;SDS011;10836;53.068;18.234;2022-07-25T05:36:09;15.93;;;6.93;;
21356;SDS011;10836;53.068;18.234;2022-07-25T05:38:36;13.55;;;6.93;;
21356;SDS011;10836;53.068;18.234;2022-07-25T05:41:03;9.98;;;5.93;;
21356;SDS011;10836;53.068;18.234;2022-07-25T05:43:30;13.43;;;6.07;;
21356;SDS011;10836;53.068;18.234;2022-07-25T05:46:01;12.35;;;5.07;;
21356;SDS011;10836;53.068;18.234;2022-07-25T05:48:29;11.68;;;5.38;;
21356;SDS011;10836;53.068;18.234;2022-07-25T05:50:57;10.27;;;5.03;;
21356;SDS011;10836;53.068;18.234;2022-07-25T05:53:25;13.75;;;5.63;;
21356;SDS011;10836;53.068;18.234;2022-07-25T05:55:52;14.27;;;5.07;;
21356;SDS011;10836;53.068;18.234;2022-07-25T05:58:19;11.70;;;4.28;;
21356;SDS011;10836;53.068;18.234;2022-07-25T06:00:49;10.15;;;4.00;;
21356;SDS011;10836;53.068;18.234;2022-07-25T06:03:16;10.15;;;3.72;;
21356;SDS011;10836;53.068;18.234;2022-07-25T06:05:45;7.47;;;3.85;;
21356;SDS011;10836;53.068;18.234;2022-07-25T06:08:12;5.18;;;3.50;;
21356;SDS011;10836;53.068;18.234;2022-07-25T06:10:41;11.43;;;3.72;;
21356;SDS011;10836;53.068;18.234;2022-07-25T06:13:08;8.27;;;3.10;;
21356;SDS011;10836;53.068;18.234;2022-07-25T06:15:35;7.57;;;3.35;;
21356;SDS011;10836;53.068;18.234;2022-07-25T06:18:02;6.00;;;3.30;;
21356;SDS011;10836;53.068;18.234;2022-07-25T06:20:30;10.40;;;3.47;;
21356;SDS011;10836;53.068;18.234;2022-07-25T06:22:57;5.00;;;2.83;;
21356;SDS011;10836;53.068;18.234;2022-07-25T06:25:24;5.82;;;3.00;;
21356;SDS011;10836;53.068;18.234;2022-07-25T06:27:51;5.05;;;2.90;;
21356;SDS011;10836;53.068;18.234;2022-07-25T06:30:18;12.93;;;3.15;;
21356;SDS011;10836;53.068;18.234;2022-07-25T06:32:49;5.82;;;3.38;;
21356;SDS011;10836;53.068;18.234;2022-07-25T06:35:16;8.18;;;3.40;;
21356;SDS011;10836;53.068;18.234;2022-07-25T06:37:44;4.90;;;3.05;;
21356;SDS011;10836;53.068;18.234;2022-07-25T06:40:12;7.75;;;2.60;;
21356;SDS011;10836;53.068;18.234;2022-07-25T06:42:44;4.75;;;2.60;;
21356;SDS011;10836;53.068;18.234;2022-07-25T06:45:13;4.20;;;2.83;;
21356;SDS011;10836;53.068;18.234;2022-07-25T06:47:41;6.13;;;2.55;;
21356;SDS011;10836;53.068;18.234;2022-07-25T06:50:09;6.32;;;2.70;;
21356;SDS011;10836;53.068;18.234;2022-07-25T06:52:39;15.85;;;2.97;;
21356;SDS011;10836;53.068;18.234;2022-07-25T06:55:07;4.40;;;2.05;;
21356;SDS011;10836;53.068;18.234;2022-07-25T06:57:35;5.97;;;2.60;;
21356;SDS011;10836;53.068;18.234;2022-07-25T07:00:03;4.85;;;2.33;;
21356;SDS011;10836;53.068;18.234;2022-07-25T07:02:48;3.70;;;2.35;;
21356;SDS011;10836;53.068;18.234;2022-07-25T07:05:22;9.80;;;3.30;;
21356;SDS011;10836;53.068;18.234;2022-07-25T07:07:50;8.60;;;2.72;;
21356;SDS011;10836;53.068;18.234;2022-07-25T07:10:17;8.15;;;3.22;;
21356;SDS011;10836;53.068;18.234;2022-07-25T07:12:45;7.03;;;2.67;;
21356;SDS011;10836;53.068;18.234;2022-07-25T07:15:13;9.02;;;3.17;;
21356;SDS011;10836;53.068;18.234;2022-07-25T07:17:41;3.78;;;2.17;;
21356;SDS011;10836;53.068;18.234;2022-07-25T07:20:08;4.07;;;2.28;;
21356;SDS011;10836;53.068;18.234;2022-07-25T07:22:46;5.72;;;3.20;;
21356;SDS011;10836;53.068;18.234;2022-07-25T07:25:14;10.50;;;2.78;;
21356;SDS011;10836;53.068;18.234;2022-07-25T07:27:45;6.30;;;2.50;;
21356;SDS011;10836;53.068;18.234;2022-07-25T07:30:13;4.72;;;2.53;;
21356;SDS011;10836;53.068;18.234;2022-07-25T07:32:44;5.47;;;2.50;;
21356;SDS011;10836;53.068;18.234;2022-07-25T07:35:12;6.55;;;3.35;;
21356;SDS011;10836;53.068;18.234;2022-07-25T07:37:42;4.55;;;2.70;;
21356;SDS011;10836;53.068;18.234;2022-07-25T07:40:10;6.47;;;2.60;;
21356;SDS011;10836;53.068;18.234;2022-07-25T07:42:44;6.15;;;2.90;;
21356;SDS011;10836;53.068;18.234;2022-07-25T07:45:18;8.02;;;2.80;;
21356;SDS011;10836;53.068;18.234;2022-07-25T07:47:48;10.18;;;2.85;;
21356;SDS011;10836;53.068;18.234;2022-07-25T07:50:16;6.05;;;2.67;;
21356;SDS011;10836;53.068;18.234;2022-07-25T07:52:45;5.13;;;2.35;;
21356;SDS011;10836;53.068;18.234;2022-07-25T07:55:12;5.75;;;2.45;;
21356;SDS011;10836;53.068;18.234;2022-07-25T07:57:59;5.70;;;2.65;;
21356;SDS011;10836;53.068;18.234;2022-07-25T08:00:27;6.40;;;2.40;;
21356;SDS011;10836;53.068;18.234;2022-07-25T08:02:57;6.13;;;2.50;;
21356;SDS011;10836;53.068;18.234;2022-07-25T08:05:27;5.20;;;2.47;;
21356;SDS011;10836;53.068;18.234;2022-07-25T08:07:56;2.90;;;2.00;;
21356;SDS011;10836;53.068;18.234;2022-07-25T08:10:28;3.55;;;2.15;;
21356;SDS011;10836;53.068;18.234;2022-07-25T08:12:57;7.00;;;2.60;;
21356;SDS011;10836;53.068;18.234;2022-07-25T08:15:25;4.60;;;2.20;;
21356;SDS011;10836;53.068;18.234;2022-07-25T08:17:53;4.47;;;2.30;;
21356;SDS011;10836;53.068;18.234;2022-07-25T08:20:20;7.55;;;2.65;;
21356;SDS011;10836;53.068;18.234;2022-07-25T08:23:04;5.57;;;2.05;;
21356;SDS011;10836;53.068;18.234;2022-07-25T08:25:31;4.20;;;2.10;;
21356;SDS011;10836;53.068;18.234;2022-07-25T08:27:58;4.30;;;1.85;;
21356;SDS011;10836;53.068;18.234;2022-07-25T08:30:25;4.22;;;2.00;;
21356;SDS011;10836;53.068;18.234;2022-07-25T08:32:56;3.25;;;1.70;;
21356;SDS011;10836;53.068;18.234;2022-07-25T08:35:29;5.53;;;1.90;;
21356;SDS011;10836;53.068;18.234;2022-07-25T08:37:58;5.45;;;1.88;;
21356;SDS011;10836;53.068;18.234;2022-07-25T08:40:27;5.72;;;2.17;;
21356;SDS011;10836;53.068;18.234;2022-07-25T08:42:55;3.30;;;2.03;;
21356;SDS011;10836;53.068;18.234;2022-07-25T08:45:24;4.68;;;1.90;;
21356;SDS011;10836;53.068;18.234;2022-07-25T08:47:55;4.47;;;2.10;;
21356;SDS011;10836;53.068;18.234;2022-07-25T08:50:23;7.28;;;2.53;;
21356;SDS011;10836;53.068;18.234;2022-07-25T08:52:53;5.13;;;2.25;;
21356;SDS011;10836;53.068;18.234;2022-07-25T08:55:41;6.72;;;2.47;;
21356;SDS011;10836;53.068;18.234;2022-07-25T08:58:11;5.25;;;1.88;;
21356;SDS011;10836;53.068;18.234;2022-07-25T09:00:39;6.85;;;2.25;;
21356;SDS011;10836;53.068;18.234;2022-07-25T09:03:07;5.80;;;1.95;;
21356;SDS011;10836;53.068;18.234;2022-07-25T09:05:35;5.35;;;2.00;;
21356;SDS011;10836;53.068;18.234;2022-07-25T09:10:34;8.65;;;2.05;;
21356;SDS011;10836;53.068;18.234;2022-07-25T09:13:03;3.83;;;1.92;;
21356;SDS011;10836;53.068;18.234;2022-07-25T09:15:34;6.07;;;2.28;;
21356;SDS011;10836;53.068;18.234;2022-07-25T09:18:06;3.83;;;2.00;;
21356;SDS011;10836;53.068;18.234;2022-07-25T09:23:06;3.78;;;2.03;;
21356;SDS011;10836;53.068;18.234;2022-07-25T09:25:34;5.78;;;1.80;;
21356;SDS011;10836;53.068;18.234;2022-07-25T09:28:08;3.53;;;1.90;;
21356;SDS011;10836;53.068;18.234;2022-07-25T09:33:47;2.90;;;1.60;;
21356;SDS011;10836;53.068;18.234;2022-07-25T09:36:22;3.92;;;2.22;;
21356;SDS011;10836;53.068;18.234;2022-07-25T09:38:50;6.45;;;2.05;;
21356;SDS011;10836;53.068;18.234;2022-07-25T09:41:34;2.58;;;1.98;;
21356;SDS011;10836;53.068;18.234;2022-07-25T09:44:02;5.35;;;2.38;;
21356;SDS011;10836;53.068;18.234;2022-07-25T09:46:31;7.10;;;2.08;;
21356;SDS011;10836;53.068;18.234;2022-07-25T09:48:59;5.18;;;1.85;;
21356;SDS011;10836;53.068;18.234;2022-07-25T09:51:26;3.95;;;1.90;;
21356;SDS011;10836;53.068;18.234;2022-07-25T09:53:54;7.75;;;2.05;;
21356;SDS011;10836;53.068;18.234;2022-07-25T09:56:21;7.60;;;1.88;;
21356;SDS011;10836;53.068;18.234;2022-07-25T09:58:48;4.03;;;1.90;;
21356;SDS011;10836;53.068;18.234;2022-07-25T10:01:18;5.13;;;1.70;;
21356;SDS011;10836;53.068;18.234;2022-07-25T10:03:52;2.78;;;1.83;;
21356;SDS011;10836;53.068;18.234;2022-07-25T10:06:47;4.28;;;1.88;;
21356;SDS011;10836;53.068;18.234;2022-07-25T10:09:20;3.33;;;1.70;;
21356;SDS011;10836;53.068;18.234;2022-07-25T10:12:04;3.80;;;1.60;;
21356;SDS011;10836;53.068;18.234;2022-07-25T10:14:36;5.63;;;1.95;;
21356;SDS011;10836;53.068;18.234;2022-07-25T10:17:05;3.30;;;1.60;;
21356;SDS011;10836;53.068;18.234;2022-07-25T10:22:05;6.45;;;1.50;;
21356;SDS011;10836;53.068;18.234;2022-07-25T10:24:33;3.25;;;1.70;;
21356;SDS011;10836;53.068;18.234;2022-07-25T10:27:08;3.80;;;1.50;;
21356;SDS011;10836;53.068;18.234;2022-07-25T10:29:37;3.78;;;1.75;;
21356;SDS011;10836;53.068;18.234;2022-07-25T10:32:07;6.50;;;2.10;;
21356;SDS011;10836;53.068;18.234;2022-07-25T10:34:37;13.23;;;2.35;;
21356;SDS011;10836;53.068;18.234;2022-07-25T10:37:12;6.90;;;1.92;;
21356;SDS011;10836;53.068;18.234;2022-07-25T10:39:42;6.97;;;1.90;;
21356;SDS011;10836;53.068;18.234;2022-07-25T10:42:15;6.72;;;1.95;;
21356;SDS011;10836;53.068;18.234;2022-07-25T10:44:46;4.80;;;1.73;;
21356;SDS011;10836;53.068;18.234;2022-07-25T10:47:15;3.95;;;1.50;;
21356;SDS011;10836;53.068;18.234;2022-07-25T10:49:44;7.00;;;1.55;;
21356;SDS011;10836;53.068;18.234;2022-07-25T10:52:38;1.83;;;1.48;;
21356;SDS011;10836;53.068;18.234;2022-07-25T10:55:07;4.93;;;1.40;;
21356;SDS011;10836;53.068;18.234;2022-07-25T10:57:34;4.40;;;1.40;;
21356;SDS011;10836;53.068;18.234;2022-07-25T11:00:20;2.22;;;1.70;;
21356;SDS011;10836;53.068;18.234;2022-07-25T11:02:48;3.78;;;1.50;;
21356;SDS011;10836;53.068;18.234;2022-07-25T11:05:15;3.42;;;1.50;;
21356;SDS011;10836;53.068;18.234;2022-07-25T11:07:49;3.13;;;1.70;;
21356;SDS011;10836;53.068;18.234;2022-07-25T11:10:38;5.00;;;1.80;;
21356;SDS011;10836;53.068;18.234;2022-07-25T11:13:08;5.07;;;1.90;;
21356;SDS011;10836;53.068;18.234;2022-07-25T11:15:40;4.13;;;1.67;;
21356;SDS011;10836;53.068;18.234;2022-07-25T11:18:07;4.57;;;1.60;;
21356;SDS011;10836;53.068;18.234;2022-07-25T11:20:34;2.50;;;1.40;;
21356;SDS011;10836;53.068;18.234;2022-07-25T11:23:01;2.13;;;1.20;;
21356;SDS011;10836;53.068;18.234;2022-07-25T11:25:28;3.05;;;1.40;;
21356;SDS011;10836;53.068;18.234;2022-07-25T11:27:56;3.58;;;1.55;;
21356;SDS011;10836;53.068;18.234;2022-07-25T11:30:25;2.45;;;1.40;;
21356;SDS011;10836;53.068;18.234;2022-07-25T11:32:55;4.28;;;1.60;;
21356;SDS011;10836;53.068;18.234;2022-07-25T11:35:30;6.63;;;1.45;;
21356;SDS011;10836;53.068;18.234;2022-07-25T11:37:59;9.68;;;1.60;;
21356;SDS011;10836;53.068;18.234;2022-07-25T11:40:28;4.38;;;1.20;;
21356;SDS011;10836;53.068;18.234;2022-07-25T11:42:58;5.88;;;1.33;;
21356;SDS011;10836;53.068;18.234;2022-07-25T11:45:30;6.90;;;1.52;;
21356;SDS011;10836;53.068;18.234;2022-07-25T11:50:30;4.60;;;1.05;;
21356;SDS011;10836;53.068;18.234;2022-07-25T11:52:59;1.98;;;1.20;;
21356;SDS011;10836;53.068;18.234;2022-07-25T11:55:28;3.10;;;1.50;;
21356;SDS011;10836;53.068;18.234;2022-07-25T11:57:58;4.45;;;1.42;;
21356;SDS011;10836;53.068;18.234;2022-07-25T12:00:26;1.65;;;1.20;;
21356;SDS011;10836;53.068;18.234;2022-07-25T12:03:04;3.20;;;1.30;;
21356;SDS011;10836;53.068;18.234;2022-07-25T12:05:46;6.88;;;1.27;;
21356;SDS011;10836;53.068;18.234;2022-07-25T12:08:18;2.35;;;1.27;;
21356;SDS011;10836;53.068;18.234;2022-07-25T12:10:48;2.22;;;0.98;;
21356;SDS011;10836;53.068;18.234;2022-07-25T12:13:24;1.35;;;0.95;;
21356;SDS011;10836;53.068;18.234;2022-07-25T12:15:54;2.75;;;1.00;;
21356;SDS011;10836;53.068;18.234;2022-07-25T12:18:22;4.72;;;0.98;;
21356;SDS011;10836;53.068;18.234;2022-07-25T12:20:49;2.47;;;1.15;;
21356;SDS011;10836;53.068;18.234;2022-07-25T12:23:16;1.35;;;0.95;;
21356;SDS011;10836;53.068;18.234;2022-07-25T12:25:45;1.27;;;0.90;;
21356;SDS011;10836;53.068;18.234;2022-07-25T12:28:12;1.60;;;1.00;;
21356;SDS011;10836;53.068;18.234;2022-07-25T12:30:41;4.22;;;1.08;;
21356;SDS011;10836;53.068;18.234;2022-07-25T12:33:09;2.90;;;0.80;;
21356;SDS011;10836;53.068;18.234;2022-07-25T12:35:39;1.63;;;0.95;;
21356;SDS011;10836;53.068;18.234;2022-07-25T12:38:07;2.22;;;1.20;;
21356;SDS011;10836;53.068;18.234;2022-07-25T12:40:34;5.30;;;1.40;;
21356;SDS011;10836;53.068;18.234;2022-07-25T12:43:02;8.00;;;1.38;;
21356;SDS011;10836;53.068;18.234;2022-07-25T12:45:30;1.35;;;1.20;;
21356;SDS011;10836;53.068;18.234;2022-07-25T12:47:57;2.08;;;1.33;;
21356;SDS011;10836;53.068;18.234;2022-07-25T12:50:24;2.03;;;0.90;;
21356;SDS011;10836;53.068;18.234;2022-07-25T12:52:51;2.70;;;1.00;;
21356;SDS011;10836;53.068;18.234;2022-07-25T12:55:19;4.20;;;1.35;;
21356;SDS011;10836;53.068;18.234;2022-07-25T12:57:47;2.45;;;1.00;;
21356;SDS011;10836;53.068;18.234;2022-07-25T13:00:15;1.33;;;0.90;;
21356;SDS011;10836;53.068;18.234;2022-07-25T13:02:45;1.75;;;1.02;;
21356;SDS011;10836;53.068;18.234;2022-07-25T13:05:12;1.38;;;1.00;;
21356;SDS011;10836;53.068;18.234;2022-07-25T13:07:39;4.55;;;1.15;;
21356;SDS011;10836;53.068;18.234;2022-07-25T13:10:07;1.98;;;1.20;;
21356;SDS011;10836;53.068;18.234;2022-07-25T13:12:35;3.88;;;1.35;;
21356;SDS011;10836;53.068;18.234;2022-07-25T13:15:02;3.92;;;1.08;;
21356;SDS011;10836;53.068;18.234;2022-07-25T13:17:30;1.70;;;1.00;;
21356;SDS011;10836;53.068;18.234;2022-07-25T13:19:57;1.45;;;0.90;;
21356;SDS011;10836;53.068;18.234;2022-07-25T13:22:25;8.35;;;1.50;;
21356;SDS011;10836;53.068;18.234;2022-07-25T13:24:52;16.27;;;1.35;;
21356;SDS011;10836;53.068;18.234;2022-07-25T13:27:20;6.40;;;1.77;;
21356;SDS011;10836;53.068;18.234;2022-07-25T13:29:49;3.45;;;1.23;;
21356;SDS011;10836;53.068;18.234;2022-07-25T13:32:21;1.67;;;1.08;;
21356;SDS011;10836;53.068;18.234;2022-07-25T13:34:48;3.33;;;1.20;;
21356;SDS011;10836;53.068;18.234;2022-07-25T13:37:16;3.13;;;1.40;;
21356;SDS011;10836;53.068;18.234;2022-07-25T13:39:44;2.78;;;1.33;;
21356;SDS011;10836;53.068;18.234;2022-07-25T13:42:11;3.47;;;1.05;;
21356;SDS011;10836;53.068;18.234;2022-07-25T13:44:38;3.83;;;1.40;;
21356;SDS011;10836;53.068;18.234;2022-07-25T13:47:05;2.22;;;1.50;;
21356;SDS011;10836;53.068;18.234;2022-07-25T13:49:32;4.65;;;1.20;;
21356;SDS011;10836;53.068;18.234;2022-07-25T13:52:00;3.13;;;1.13;;
21356;SDS011;10836;53.068;18.234;2022-07-25T13:54:27;6.72;;;1.50;;
21356;SDS011;10836;53.068;18.234;2022-07-25T13:56:54;4.50;;;1.17;;
21356;SDS011;10836;53.068;18.234;2022-07-25T13:59:21;3.83;;;1.30;;
21356;SDS011;10836;53.068;18.234;2022-07-25T14:01:48;1.67;;;1.30;;
21356;SDS011;10836;53.068;18.234;2022-07-25T14:04:16;6.05;;;1.60;;
21356;SDS011;10836;53.068;18.234;2022-07-25T14:06:43;6.22;;;1.45;;
21356;SDS011;10836;53.068;18.234;2022-07-25T14:09:10;2.92;;;1.40;;
21356;SDS011;10836;53.068;18.234;2022-07-25T14:11:37;1.85;;;1.20;;
21356;SDS011;10836;53.068;18.234;2022-07-25T14:14:04;3.70;;;1.38;;
21356;SDS011;10836;53.068;18.234;2022-07-25T14:16:32;3.42;;;1.20;;
21356;SDS011;10836;53.068;18.234;2022-07-25T14:19:00;6.05;;;1.52;;
21356;SDS011;10836;53.068;18.234;2022-07-25T14:21:28;3.95;;;1.42;;
21356;SDS011;10836;53.068;18.234;2022-07-25T14:23:56;3.90;;;1.30;;
21356;SDS011;10836;53.068;18.234;2022-07-25T14:26:23;2.92;;;1.35;;
21356;SDS011;10836;53.068;18.234;2022-07-25T14:28:51;2.13;;;1.17;;
21356;SDS011;10836;53.068;18.234;2022-07-25T14:31:18;7.00;;;1.48;;
21356;SDS011;10836;53.068;18.234;2022-07-25T14:33:46;2.67;;;1.25;;
21356;SDS011;10836;53.068;18.234;2022-07-25T14:36:14;4.72;;;1.40;;
21356;SDS011;10836;53.068;18.234;2022-07-25T14:38:41;2.78;;;1.40;;
21356;SDS011;10836;53.068;18.234;2022-07-25T14:41:09;3.42;;;1.42;;
21356;SDS011;10836;53.068;18.234;2022-07-25T14:43:39;4.90;;;1.83;;
21356;SDS011;10836;53.068;18.234;2022-07-25T14:46:06;2.88;;;1.33;;
21356;SDS011;10836;53.068;18.234;2022-07-25T14:48:35;3.20;;;1.40;;
21356;SDS011;10836;53.068;18.234;2022-07-25T14:51:03;4.47;;;1.60;;
21356;SDS011;10836;53.068;18.234;2022-07-25T14:53:32;2.17;;;1.33;;